212  
UXUS97 KREV 261436  
SRGREV  
 
SOARING FORECAST  
NATIONAL WEATHER SERVICE - RENO NV  
700 AM PST WED FEB 26 2020  
 
THIS SOARING FORECAST IS FOR THE EASTERN SIERRA AND WESTERN NEVADA  
WITH SPECIFIC INDICES FOR THE GREATER RENO AREA.  
 
THIS FORECAST IS PREPARED DAILY BY 700 AM AND IS NOT UPDATED.  
 
FOR CURRENT FLIGHT CONDITIONS...FORECASTS...AND ADVISORIES...ACCESS  
YOUR LOCAL BRIEFING OUTLET OR FLIGHT SERVICE STATION.  
 
*******************************************************************  
FORECASTED LOCAL INDICES FOR RENO: TODAY YESTERDAY  
FORECASTED MAX TEMP AT RENO (DEG F)..... 68 59  
FORECASTED TRIGGER TEMPERATURE (DEG F).. 17 50  
EXCEEDED YESTERDAY BY 1155 AM PST  
FORECASTED MAXIMUM ALTITUDE (FT MSL).... 12600 10900  
FORECASTED SOARING INDEX (FPM).......... 258 387  
FORECASTED K-INDEX.........VALID 18Z.... 4 3  
FORECASTED K-INDEX.........VALID 00Z.... 24 3  
FORECASTED LIFTED INDEX....VALID 18Z.... 3 11  
FORECASTED LIFTED INDEX....VALID 00Z.... 0 7  
 
AFTERNOON WINDS ALOFT FORECAST  
MSL (FT) WIND/TEMP  
9000 2811/+04  
10000 2813/+01  
12000 2917/-03  
14000 2919/-08  
16000 2922/-14  
18000 3031/-20  
24000 3035/-33  
30000 3134/-49  
34000 3044/-56  
39000 2955/-61  
 
SLIDE MOUNTAIN DATA:  
DATE TIME TEMP DEWPT RH WIND (MPH)  
(F) (F) | DIR SPEED GUST  
2020-02-26 05:50 36 8 18 | 315 8 15  
2020-02-26 05:30 36 8 18 | 324 8 15  
2020-02-26 05:20 36 8 18 | 309 12 15  
2020-02-26 05:00 36 8 18 | 323 12 15  
 
SIERRA CREST 8700 FT DATA:  
DATE TIME TEMP RH WIND  
DIR SPEED GUST  
2020-02-26 0600 34 37 252 17 21  
2020-02-26 0545 34 37 261 15 19  
2020-02-26 0530 34 37 256 14 17  
2020-02-26 0515 35 34 240 18 21  
 
RENO TAF FORECAST:  
KRNO 261135Z 2612/2712 VRB03KT P6SM FEW180 BKN250  
FM262200 32006KT P6SM FEW200  
 
MINDEN TAF FORECAST:  
KMEV 261135Z 2612/2712 11004KT P6SM FEW180 BKN250  
FM262100 27010G18KT P6SM FEW200  
 
OUTLOOK FOR THE RENO-CARSON CITY-MINDEN AREA:   
THURSDAY
 
SUNNY. HIGHS 61 TO 66. LIGHT WINDS BECOMING EAST  
AROUND 10 MPH IN THE AFTERNOON.  
 
SUNRISE AND SUNSET  
FEBRUARY 26 2020......SUNRISE 637 AM PST SUNSET 548 PM PST  
FEBRUARY 27 2020......SUNRISE 635 AM PST SUNSET 549 PM PST  
 
CLICK HERE TO GO TO PREVIOUS BULLETINS.

The Nexlab NV Page
The Nexlab CA Page Main Text Page